Terminal Aerodrome Forecast
Issued by NWS Spokane, WA

Home | Current Version | Previous Version | Text Only | Print | Product List | Glossary On
Versions: 1 2 3 4 5 6 7 8 9 10 11 12 13 14 15 16
000
FTUS46 KOTX 171150 CCA
TAFGEG
TAF COR
KGEG 171150Z 1712/1812 17007KT P6SM -RA OVC035
     FM171700 20011KT P6SM -RA SCT018 OVC025
     FM172300 20011KT 5SM RA BKN010 OVC018
     FM180600 21016KT P6SM -SHRA BKN012
     FM181000 21021G30KT P6SM VCSH SCT012 BKN035=

USA.gov is the U.S. government's official web portal to all federal, state and local government web resources and services.